sensor_id;sensor_type;location;lat;lon;timestamp;pressure;altitude;pressure_sealevel;temperature;humidity
14383;BME280;7275;50.328;8.720;2022-11-02T00:00:24;100168.22;;;14.67;43.72
14383;BME280;7275;50.328;8.720;2022-11-02T00:02:54;100173.53;;;14.67;43.82
14383;BME280;7275;50.328;8.720;2022-11-02T00:05:22;100168.28;;;14.66;43.80
14383;BME280;7275;50.328;8.720;2022-11-02T00:07:50;100170.97;;;14.66;43.78
14383;BME280;7275;50.328;8.720;2022-11-02T00:10:18;100163.09;;;14.63;43.99
14383;BME280;7275;50.328;8.720;2022-11-02T00:12:47;100163.06;;;14.64;43.91
14383;BME280;7275;50.328;8.720;2022-11-02T00:15:14;100169.16;;;14.66;43.96
14383;BME280;7275;50.328;8.720;2022-11-02T00:17:45;100165.56;;;14.67;44.02
14383;BME280;7275;50.328;8.720;2022-11-02T00:20:17;100168.94;;;14.71;44.02
14383;BME280;7275;50.328;8.720;2022-11-02T00:22:47;100162.59;;;14.73;43.96
14383;BME280;7275;50.328;8.720;2022-11-02T00:25:18;100164.34;;;14.74;43.84
14383;BME280;7275;50.328;8.720;2022-11-02T00:27:48;100166.06;;;14.75;43.96
14383;BME280;7275;50.328;8.720;2022-11-02T00:30:16;100163.38;;;14.75;43.96
14383;BME280;7275;50.328;8.720;2022-11-02T00:32:43;100165.22;;;14.75;44.04
14383;BME280;7275;50.328;8.720;2022-11-02T00:35:12;100156.38;;;14.74;44.11
14383;BME280;7275;50.328;8.720;2022-11-02T00:37:41;100154.50;;;14.76;44.11
14383;BME280;7275;50.328;8.720;2022-11-02T00:40:09;100156.16;;;14.79;44.13
14383;BME280;7275;50.328;8.720;2022-11-02T00:42:37;100157.78;;;14.81;44.08
14383;BME280;7275;50.328;8.720;2022-11-02T00:45:05;100157.56;;;14.86;43.97
14383;BME280;7275;50.328;8.720;2022-11-02T00:47:33;100159.09;;;14.91;43.88
14383;BME280;7275;50.328;8.720;2022-11-02T00:50:01;100152.75;;;14.94;43.83
14383;BME280;7275;50.328;8.720;2022-11-02T00:52:29;100153.47;;;14.97;43.77
14383;BME280;7275;50.328;8.720;2022-11-02T00:54:58;100144.44;;;15.00;43.57
14383;BME280;7275;50.328;8.720;2022-11-02T00:57:25;100147.06;;;15.01;43.48
14383;BME280;7275;50.328;8.720;2022-11-02T00:59:53;100147.91;;;15.02;43.42
14383;BME280;7275;50.328;8.720;2022-11-02T01:02:20;100139.00;;;15.03;43.40
14383;BME280;7275;50.328;8.720;2022-11-02T01:04:48;100138.22;;;15.01;43.16
14383;BME280;7275;50.328;8.720;2022-11-02T01:07:16;100137.34;;;15.00;43.41
14383;BME280;7275;50.328;8.720;2022-11-02T01:09:43;100134.75;;;14.99;43.14
14383;BME280;7275;50.328;8.720;2022-11-02T01:12:12;100138.34;;;14.98;43.51
14383;BME280;7275;50.328;8.720;2022-11-02T01:14:40;100134.88;;;14.96;43.62
14383;BME280;7275;50.328;8.720;2022-11-02T01:17:07;100137.63;;;14.94;43.98
14383;BME280;7275;50.328;8.720;2022-11-02T01:19:35;100145.63;;;14.94;44.30
14383;BME280;7275;50.328;8.720;2022-11-02T01:22:02;100134.97;;;14.94;44.52
14383;BME280;7275;50.328;8.720;2022-11-02T01:24:30;100137.56;;;14.96;44.88
14383;BME280;7275;50.328;8.720;2022-11-02T01:26:57;100145.50;;;14.97;44.97
14383;BME280;7275;50.328;8.720;2022-11-02T01:29:26;100137.41;;;14.99;45.09
14383;BME280;7275;50.328;8.720;2022-11-02T01:31:54;100133.66;;;15.03;45.09
14383;BME280;7275;50.328;8.720;2022-11-02T01:34:22;100134.47;;;15.05;45.29
14383;BME280;7275;50.328;8.720;2022-11-02T01:36:49;100127.25;;;15.07;45.36
14383;BME280;7275;50.328;8.720;2022-11-02T01:39:17;100128.84;;;15.11;45.52
14383;BME280;7275;50.328;8.720;2022-11-02T01:41:44;100130.56;;;15.12;45.58
14383;BME280;7275;50.328;8.720;2022-11-02T01:44:27;100125.25;;;15.12;45.89
14383;BME280;7275;50.328;8.720;2022-11-02T01:46:59;100122.59;;;15.12;45.82
14383;BME280;7275;50.328;8.720;2022-11-02T01:49:31;100111.06;;;15.11;45.87
14383;BME280;7275;50.328;8.720;2022-11-02T01:52:04;100110.97;;;15.13;46.02
14383;BME280;7275;50.328;8.720;2022-11-02T01:54:38;100109.19;;;15.13;46.08
14383;BME280;7275;50.328;8.720;2022-11-02T01:57:09;100105.56;;;15.14;46.07
14383;BME280;7275;50.328;8.720;2022-11-02T01:59:41;100101.09;;;15.15;46.22
14383;BME280;7275;50.328;8.720;2022-11-02T02:02:16;100094.91;;;15.14;46.29
14383;BME280;7275;50.328;8.720;2022-11-02T02:04:48;100086.09;;;15.14;46.40
14383;BME280;7275;50.328;8.720;2022-11-02T02:07:16;100097.66;;;15.13;46.15
14383;BME280;7275;50.328;8.720;2022-11-02T02:09:43;100089.66;;;15.13;46.55
14383;BME280;7275;50.328;8.720;2022-11-02T02:12:16;100084.44;;;15.11;46.56
14383;BME280;7275;50.328;8.720;2022-11-02T02:14:46;100080.91;;;15.11;46.81
14383;BME280;7275;50.328;8.720;2022-11-02T02:17:23;100080.09;;;15.09;46.82
14383;BME280;7275;50.328;8.720;2022-11-02T02:19:57;100069.47;;;15.09;47.05
14383;BME280;7275;50.328;8.720;2022-11-02T02:25:34;100061.66;;;15.06;47.06
14383;BME280;7275;50.328;8.720;2022-11-02T02:28:15;100060.78;;;15.05;47.10
14383;BME280;7275;50.328;8.720;2022-11-02T02:30:49;100074.09;;;15.05;47.27
14383;BME280;7275;50.328;8.720;2022-11-02T02:33:26;100066.97;;;15.06;47.38
14383;BME280;7275;50.328;8.720;2022-11-02T02:35:57;100059.81;;;15.06;47.16
14383;BME280;7275;50.328;8.720;2022-11-02T02:38:30;100058.03;;;15.07;47.22
14383;BME280;7275;50.328;8.720;2022-11-02T02:41:03;100058.91;;;15.07;47.37
14383;BME280;7275;50.328;8.720;2022-11-02T02:43:39;100068.59;;;15.08;47.37
14383;BME280;7275;50.328;8.720;2022-11-02T02:46:14;100071.19;;;15.10;47.26
14383;BME280;7275;50.328;8.720;2022-11-02T02:48:45;100073.78;;;15.11;47.41
14383;BME280;7275;50.328;8.720;2022-11-02T02:51:17;100078.09;;;15.14;47.33
14383;BME280;7275;50.328;8.720;2022-11-02T02:53:49;100088.56;;;15.17;47.58
14383;BME280;7275;50.328;8.720;2022-11-02T02:56:20;100074.34;;;15.18;47.66
14383;BME280;7275;50.328;8.720;2022-11-02T02:58:54;100072.47;;;15.20;47.49
14383;BME280;7275;50.328;8.720;2022-11-02T03:01:23;100078.47;;;15.23;47.70
14383;BME280;7275;50.328;8.720;2022-11-02T03:03:52;100071.28;;;15.26;47.95
14383;BME280;7275;50.328;8.720;2022-11-02T03:06:22;100063.97;;;15.29;47.95
14383;BME280;7275;50.328;8.720;2022-11-02T03:08:58;100077.16;;;15.32;47.94
14383;BME280;7275;50.328;8.720;2022-11-02T03:11:30;100084.94;;;15.37;47.80
14383;BME280;7275;50.328;8.720;2022-11-02T03:14:05;100077.53;;;15.42;47.82
14383;BME280;7275;50.328;8.720;2022-11-02T03:16:44;100075.66;;;15.45;47.86
14383;BME280;7275;50.328;8.720;2022-11-02T03:19:19;100077.22;;;15.49;47.79
14383;BME280;7275;50.328;8.720;2022-11-02T03:21:54;100071.56;;;15.55;47.75
14383;BME280;7275;50.328;8.720;2022-11-02T03:24:28;100082.03;;;15.58;47.79
14383;BME280;7275;50.328;8.720;2022-11-02T03:27:06;100099.69;;;15.61;47.95
14383;BME280;7275;50.328;8.720;2022-11-02T03:29:43;100097.75;;;15.64;47.96
14383;BME280;7275;50.328;8.720;2022-11-02T03:32:19;100088.69;;;15.67;47.73
14383;BME280;7275;50.328;8.720;2022-11-02T03:34:53;100073.50;;;15.69;47.91
14383;BME280;7275;50.328;8.720;2022-11-02T03:37:25;100084.00;;;15.72;47.86
14383;BME280;7275;50.328;8.720;2022-11-02T03:39:57;100075.16;;;15.71;47.97
14383;BME280;7275;50.328;8.720;2022-11-02T03:42:31;100091.91;;;15.73;47.91
14383;BME280;7275;50.328;8.720;2022-11-02T03:45:06;100113.97;;;15.77;47.89
14383;BME280;7275;50.328;8.720;2022-11-02T03:47:37;100101.41;;;15.79;47.80
14383;BME280;7275;50.328;8.720;2022-11-02T03:50:07;100106.66;;;15.80;47.67
14383;BME280;7275;50.328;8.720;2022-11-02T03:52:37;100105.72;;;15.81;47.61
14383;BME280;7275;50.328;8.720;2022-11-02T03:55:10;100117.25;;;15.82;47.73
14383;BME280;7275;50.328;8.720;2022-11-02T03:57:41;100113.69;;;15.81;47.69
14383;BME280;7275;50.328;8.720;2022-11-02T04:00:13;100111.91;;;15.82;47.69
14383;BME280;7275;50.328;8.720;2022-11-02T04:02:43;100105.72;;;15.81;47.52
14383;BME280;7275;50.328;8.720;2022-11-02T04:05:12;100108.47;;;15.80;47.79
14383;BME280;7275;50.328;8.720;2022-11-02T04:07:42;100106.75;;;15.79;47.68
14383;BME280;7275;50.328;8.720;2022-11-02T04:10:30;100123.75;;;15.76;47.67
14383;BME280;7275;50.328;8.720;2022-11-02T04:12:57;100131.66;;;15.78;47.72
14383;BME280;7275;50.328;8.720;2022-11-02T04:15:44;100130.03;;;15.75;47.90
14383;BME280;7275;50.328;8.720;2022-11-02T04:18:11;100123.84;;;15.75;47.95
14383;BME280;7275;50.328;8.720;2022-11-02T04:20:57;100135.44;;;15.74;47.90
14383;BME280;7275;50.328;8.720;2022-11-02T04:23:24;100140.78;;;15.74;48.00
14383;BME280;7275;50.328;8.720;2022-11-02T04:26:09;100142.66;;;15.72;48.09
14383;BME280;7275;50.328;8.720;2022-11-02T04:28:37;100147.97;;;15.72;48.08
14383;BME280;7275;50.328;8.720;2022-11-02T04:31:06;100149.69;;;15.73;48.09
14383;BME280;7275;50.328;8.720;2022-11-02T04:33:33;100144.44;;;15.71;48.24
14383;BME280;7275;50.328;8.720;2022-11-02T04:36:01;100135.56;;;15.71;47.99
14383;BME280;7275;50.328;8.720;2022-11-02T04:38:29;100134.75;;;15.70;48.20
14383;BME280;7275;50.328;8.720;2022-11-02T04:41:05;100131.34;;;15.67;48.17
14383;BME280;7275;50.328;8.720;2022-11-02T04:43:51;100121.78;;;15.63;48.08
14383;BME280;7275;50.328;8.720;2022-11-02T04:46:21;100135.34;;;15.58;48.05
14383;BME280;7275;50.328;8.720;2022-11-02T04:48:49;100116.00;;;15.55;48.17
14383;BME280;7275;50.328;8.720;2022-11-02T04:51:17;100114.59;;;15.48;48.16
14383;BME280;7275;50.328;8.720;2022-11-02T04:53:46;100126.31;;;15.44;48.16
14383;BME280;7275;50.328;8.720;2022-11-02T04:56:13;100137.25;;;15.38;48.33
14383;BME280;7275;50.328;8.720;2022-11-02T04:58:41;100130.44;;;15.32;48.57
14383;BME280;7275;50.328;8.720;2022-11-02T05:01:12;100130.75;;;15.26;48.55
14383;BME280;7275;50.328;8.720;2022-11-02T05:03:41;100140.69;;;15.23;48.70
14383;BME280;7275;50.328;8.720;2022-11-02T05:06:09;100136.47;;;15.18;48.54
14383;BME280;7275;50.328;8.720;2022-11-02T05:08:37;100135.72;;;15.15;48.73
14383;BME280;7275;50.328;8.720;2022-11-02T05:11:05;100138.56;;;15.12;48.81
14383;BME280;7275;50.328;8.720;2022-11-02T05:13:32;100143.09;;;15.10;48.62
14383;BME280;7275;50.328;8.720;2022-11-02T05:16:00;100145.81;;;15.08;48.83
14383;BME280;7275;50.328;8.720;2022-11-02T05:18:27;100143.31;;;15.05;48.66
14383;BME280;7275;50.328;8.720;2022-11-02T05:20:58;100146.09;;;15.02;48.78
14383;BME280;7275;50.328;8.720;2022-11-02T05:23:26;100147.97;;;15.00;48.80
14383;BME280;7275;50.328;8.720;2022-11-02T05:25:56;100156.13;;;14.97;48.95
14383;BME280;7275;50.328;8.720;2022-11-02T05:28:25;100150.94;;;14.94;48.96
14383;BME280;7275;50.328;8.720;2022-11-02T05:30:52;100147.56;;;14.91;48.98
14383;BME280;7275;50.328;8.720;2022-11-02T05:33:20;100165.44;;;14.89;48.99
14383;BME280;7275;50.328;8.720;2022-11-02T05:35:56;100160.22;;;14.86;48.87
14383;BME280;7275;50.328;8.720;2022-11-02T05:38:24;100159.34;;;14.85;48.97
14383;BME280;7275;50.328;8.720;2022-11-02T05:40:53;100159.34;;;14.85;49.11
14383;BME280;7275;50.328;8.720;2022-11-02T05:43:21;100171.03;;;14.83;49.03
14383;BME280;7275;50.328;8.720;2022-11-02T05:45:53;100175.56;;;14.81;49.24
14383;BME280;7275;50.328;8.720;2022-11-02T05:48:22;100180.91;;;14.81;49.13
14383;BME280;7275;50.328;8.720;2022-11-02T05:50:54;100165.06;;;14.78;49.11
14383;BME280;7275;50.328;8.720;2022-11-02T05:53:23;100173.13;;;14.76;49.21
14383;BME280;7275;50.328;8.720;2022-11-02T05:55:51;100186.50;;;14.75;48.94
14383;BME280;7275;50.328;8.720;2022-11-02T05:58:19;100190.97;;;14.74;49.17
14383;BME280;7275;50.328;8.720;2022-11-02T06:00:46;100191.88;;;14.73;49.19
14383;BME280;7275;50.328;8.720;2022-11-02T06:03:14;100195.50;;;14.72;49.27
14383;BME280;7275;50.328;8.720;2022-11-02T06:05:42;100187.50;;;14.72;49.33
14383;BME280;7275;50.328;8.720;2022-11-02T06:08:10;100192.81;;;14.72;49.32
14383;BME280;7275;50.328;8.720;2022-11-02T06:10:39;100198.16;;;14.72;49.26
14383;BME280;7275;50.328;8.720;2022-11-02T06:13:08;100201.91;;;14.68;49.40
14383;BME280;7275;50.328;8.720;2022-11-02T06:15:36;100194.81;;;14.67;49.25
14383;BME280;7275;50.328;8.720;2022-11-02T06:18:03;100201.94;;;14.67;49.21
14383;BME280;7275;50.328;8.720;2022-11-02T06:20:31;100200.22;;;14.66;49.53
14383;BME280;7275;50.328;8.720;2022-11-02T06:22:59;100203.81;;;14.65;49.43
14383;BME280;7275;50.328;8.720;2022-11-02T06:25:27;100203.81;;;14.65;49.53
14383;BME280;7275;50.328;8.720;2022-11-02T06:27:56;100206.47;;;14.65;49.75
14383;BME280;7275;50.328;8.720;2022-11-02T06:30:24;100207.34;;;14.65;49.62
14383;BME280;7275;50.328;8.720;2022-11-02T06:32:52;100218.84;;;14.66;49.65
14383;BME280;7275;50.328;8.720;2022-11-02T06:35:21;100221.44;;;14.67;49.51
14383;BME280;7275;50.328;8.720;2022-11-02T06:37:48;100222.38;;;14.66;49.49
14383;BME280;7275;50.328;8.720;2022-11-02T06:40:16;100235.63;;;14.68;49.51
14383;BME280;7275;50.328;8.720;2022-11-02T06:42:54;100239.19;;;14.67;49.58
14383;BME280;7275;50.328;8.720;2022-11-02T06:45:43;100250.78;;;14.66;49.53
14383;BME280;7275;50.328;8.720;2022-11-02T06:48:10;100259.56;;;14.68;49.62
14383;BME280;7275;50.328;8.720;2022-11-02T06:50:38;100266.69;;;14.67;49.66
14383;BME280;7275;50.328;8.720;2022-11-02T06:53:05;100274.75;;;14.66;49.79
14383;BME280;7275;50.328;8.720;2022-11-02T06:55:34;100258.63;;;14.69;49.73
14383;BME280;7275;50.328;8.720;2022-11-02T06:58:01;100278.91;;;14.71;49.75
14383;BME280;7275;50.328;8.720;2022-11-02T07:00:28;100275.34;;;14.72;49.71
14383;BME280;7275;50.328;8.720;2022-11-02T07:03:03;100279.72;;;14.73;49.80
14383;BME280;7275;50.328;8.720;2022-11-02T07:05:31;100277.84;;;14.75;49.81
14383;BME280;7275;50.328;8.720;2022-11-02T07:07:59;100278.72;;;14.76;49.78
14383;BME280;7275;50.328;8.720;2022-11-02T07:10:27;100283.91;;;14.79;49.88
14383;BME280;7275;50.328;8.720;2022-11-02T07:12:56;100289.94;;;14.82;50.02
14383;BME280;7275;50.328;8.720;2022-11-02T07:15:24;100284.56;;;14.84;50.04
14383;BME280;7275;50.328;8.720;2022-11-02T07:17:52;100294.28;;;14.85;49.92
14383;BME280;7275;50.328;8.720;2022-11-02T07:20:21;100303.78;;;14.90;49.93
14383;BME280;7275;50.328;8.720;2022-11-02T07:22:52;100308.81;;;14.96;50.12
14383;BME280;7275;50.328;8.720;2022-11-02T07:25:20;100304.00;;;15.04;50.02
14383;BME280;7275;50.328;8.720;2022-11-02T07:27:48;100306.25;;;15.13;49.91
14383;BME280;7275;50.328;8.720;2022-11-02T07:30:16;100311.00;;;15.26;50.11
14383;BME280;7275;50.328;8.720;2022-11-02T07:32:44;100312.28;;;15.36;50.14
14383;BME280;7275;50.328;8.720;2022-11-02T07:35:13;100301.13;;;15.48;50.17
14383;BME280;7275;50.328;8.720;2022-11-02T07:37:43;100309.41;;;15.60;50.16
14383;BME280;7275;50.328;8.720;2022-11-02T07:40:11;100306.19;;;15.71;50.02
14383;BME280;7275;50.328;8.720;2022-11-02T07:42:43;100312.66;;;15.84;50.19
14383;BME280;7275;50.328;8.720;2022-11-02T07:45:12;100308.53;;;15.95;49.95
14383;BME280;7275;50.328;8.720;2022-11-02T07:47:41;100314.19;;;16.07;50.12
14383;BME280;7275;50.328;8.720;2022-11-02T07:50:08;100310.09;;;16.17;50.02
14383;BME280;7275;50.328;8.720;2022-11-02T07:52:43;100305.97;;;16.28;49.83
14383;BME280;7275;50.328;8.720;2022-11-02T07:55:12;100306.28;;;16.39;49.98
14383;BME280;7275;50.328;8.720;2022-11-02T07:57:40;100302.16;;;16.51;50.04
14383;BME280;7275;50.328;8.720;2022-11-02T08:00:09;100312.97;;;16.65;50.14
14383;BME280;7275;50.328;8.720;2022-11-02T08:02:38;100306.59;;;16.85;50.19
14383;BME280;7275;50.328;8.720;2022-11-02T08:05:06;100309.75;;;17.08;50.25
14383;BME280;7275;50.328;8.720;2022-11-02T08:07:34;100309.97;;;17.36;50.40
14383;BME280;7275;50.328;8.720;2022-11-02T08:10:03;100314.69;;;17.64;50.16
14383;BME280;7275;50.328;8.720;2022-11-02T08:12:31;100322.00;;;17.92;49.74
14383;BME280;7275;50.328;8.720;2022-11-02T08:14:58;100319.53;;;18.18;49.36
14383;BME280;7275;50.328;8.720;2022-11-02T08:17:32;100316.69;;;18.51;48.94
14383;BME280;7275;50.328;8.720;2022-11-02T08:20:00;100320.69;;;18.88;48.21
14383;BME280;7275;50.328;8.720;2022-11-02T08:22:27;100324.91;;;19.20;47.72
14383;BME280;7275;50.328;8.720;2022-11-02T08:24:55;100317.47;;;19.39;47.30
14383;BME280;7275;50.328;8.720;2022-11-02T08:27:24;100322.56;;;19.44;46.74
14383;BME280;7275;50.328;8.720;2022-11-02T08:29:51;100320.81;;;19.43;46.99
14383;BME280;7275;50.328;8.720;2022-11-02T08:32:19;100316.88;;;19.62;47.25
14383;BME280;7275;50.328;8.720;2022-11-02T08:34:46;100322.50;;;19.99;47.06
14383;BME280;7275;50.328;8.720;2022-11-02T08:37:14;100319.38;;;20.45;46.87
14383;BME280;7275;50.328;8.720;2022-11-02T08:39:41;100321.38;;;20.94;46.33
14383;BME280;7275;50.328;8.720;2022-11-02T08:42:08;100319.03;;;21.27;45.71
14383;BME280;7275;50.328;8.720;2022-11-02T08:44:37;100317.19;;;21.76;45.49
14383;BME280;7275;50.328;8.720;2022-11-02T08:47:08;100321.06;;;22.32;45.01
14383;BME280;7275;50.328;8.720;2022-11-02T08:49:35;100324.94;;;22.75;44.21
14383;BME280;7275;50.328;8.720;2022-11-02T08:52:03;100314.56;;;23.04;42.95
14383;BME280;7275;50.328;8.720;2022-11-02T08:54:31;100306.00;;;23.32;42.87
14383;BME280;7275;50.328;8.720;2022-11-02T08:56:58;100301.66;;;23.74;42.39
14383;BME280;7275;50.328;8.720;2022-11-02T08:59:26;100317.78;;;24.18;42.41
14383;BME280;7275;50.328;8.720;2022-11-02T09:01:55;100318.00;;;24.58;41.49
14383;BME280;7275;50.328;8.720;2022-11-02T09:04:22;100316.72;;;24.94;40.97
14383;BME280;7275;50.328;8.720;2022-11-02T09:06:50;100313.91;;;25.25;40.66
14383;BME280;7275;50.328;8.720;2022-11-02T09:09:18;100321.38;;;25.63;40.08
14383;BME280;7275;50.328;8.720;2022-11-02T09:11:48;100302.06;;;25.96;39.80
14383;BME280;7275;50.328;8.720;2022-11-02T09:14:16;100321.38;;;26.32;39.01
14383;BME280;7275;50.328;8.720;2022-11-02T09:16:43;100317.53;;;26.53;38.65
14383;BME280;7275;50.328;8.720;2022-11-02T09:19:12;100310.53;;;26.79;38.46
14383;BME280;7275;50.328;8.720;2022-11-02T09:21:40;100305.75;;;27.10;37.52
14383;BME280;7275;50.328;8.720;2022-11-02T09:24:08;100313.13;;;27.37;37.16
14383;BME280;7275;50.328;8.720;2022-11-02T09:26:35;100310.44;;;27.64;36.83
14383;BME280;7275;50.328;8.720;2022-11-02T09:29:03;100303.81;;;27.94;36.24
14383;BME280;7275;50.328;8.720;2022-11-02T09:31:31;100309.78;;;28.24;36.28
14383;BME280;7275;50.328;8.720;2022-11-02T09:33:59;100307.38;;;28.39;35.45
14383;BME280;7275;50.328;8.720;2022-11-02T09:36:27;100318.41;;;28.55;35.07
14383;BME280;7275;50.328;8.720;2022-11-02T09:38:55;100318.34;;;28.82;35.62
14383;BME280;7275;50.328;8.720;2022-11-02T09:41:28;100311.19;;;29.25;35.00
14383;BME280;7275;50.328;8.720;2022-11-02T09:44:02;100325.66;;;29.59;34.31
14383;BME280;7275;50.328;8.720;2022-11-02T09:46:34;100320.69;;;29.88;33.97
14383;BME280;7275;50.328;8.720;2022-11-02T09:49:09;100319.94;;;30.20;33.71
14383;BME280;7275;50.328;8.720;2022-11-02T09:51:41;100319.84;;;30.45;33.41
14383;BME280;7275;50.328;8.720;2022-11-02T09:54:12;100324.50;;;30.85;32.98
14383;BME280;7275;50.328;8.720;2022-11-02T09:56:44;100332.13;;;31.14;32.10
14383;BME280;7275;50.328;8.720;2022-11-02T09:59:13;100329.19;;;31.31;31.45
14383;BME280;7275;50.328;8.720;2022-11-02T10:01:49;100332.78;;;31.32;31.19
14383;BME280;7275;50.328;8.720;2022-11-02T10:04:39;100334.00;;;31.21;31.80
14383;BME280;7275;50.328;8.720;2022-11-02T10:07:17;100337.88;;;31.51;31.08
14383;BME280;7275;50.328;8.720;2022-11-02T10:09:52;100332.31;;;31.75;30.81
14383;BME280;7275;50.328;8.720;2022-11-02T10:12:25;100330.72;;;31.97;30.88
14383;BME280;7275;50.328;8.720;2022-11-02T10:14:58;100339.19;;;32.41;30.54
14383;BME280;7275;50.328;8.720;2022-11-02T10:17:33;100345.66;;;32.93;29.99
14383;BME280;7275;50.328;8.720;2022-11-02T10:20:05;100350.47;;;33.28;29.11
14383;BME280;7275;50.328;8.720;2022-11-02T10:22:39;100358.28;;;33.83;28.46
14383;BME280;7275;50.328;8.720;2022-11-02T10:25:11;100363.47;;;34.43;27.70
14383;BME280;7275;50.328;8.720;2022-11-02T10:27:42;100352.28;;;34.80;26.57
14383;BME280;7275;50.328;8.720;2022-11-02T10:30:13;100373.53;;;35.14;26.50
14383;BME280;7275;50.328;8.720;2022-11-02T10:32:42;100362.03;;;35.04;24.75
14383;BME280;7275;50.328;8.720;2022-11-02T10:35:17;100371.56;;;34.87;25.53
14383;BME280;7275;50.328;8.720;2022-11-02T10:38:14;100367.22;;;34.71;25.21
14383;BME280;7275;50.328;8.720;2022-11-02T10:40:58;100370.50;;;34.45;25.00
14383;BME280;7275;50.328;8.720;2022-11-02T10:43:41;100369.16;;;33.91;25.65
14383;BME280;7275;50.328;8.720;2022-11-02T10:46:36;100376.03;;;33.43;25.94
14383;BME280;7275;50.328;8.720;2022-11-02T10:49:12;100394.72;;;32.80;25.29
14383;BME280;7275;50.328;8.720;2022-11-02T10:51:42;100386.22;;;32.13;25.55
14383;BME280;7275;50.328;8.720;2022-11-02T10:54:12;100379.47;;;31.85;25.77
14383;BME280;7275;50.328;8.720;2022-11-02T10:56:49;100379.47;;;31.93;26.29
14383;BME280;7275;50.328;8.720;2022-11-02T10:59:18;100373.38;;;32.45;26.31
14383;BME280;7275;50.328;8.720;2022-11-02T11:02:02;100366.94;;;33.43;26.04
14383;BME280;7275;50.328;8.720;2022-11-02T11:04:33;100369.69;;;34.30;25.20
14383;BME280;7275;50.328;8.720;2022-11-02T11:07:04;100379.09;;;34.78;24.47
14383;BME280;7275;50.328;8.720;2022-11-02T11:09:37;100365.56;;;35.19;24.29
14383;BME280;7275;50.328;8.720;2022-11-02T11:12:15;100351.47;;;35.56;23.90
14383;BME280;7275;50.328;8.720;2022-11-02T11:14:47;100340.84;;;35.53;23.44
14383;BME280;7275;50.328;8.720;2022-11-02T11:17:37;100357.00;;;35.35;22.59
14383;BME280;7275;50.328;8.720;2022-11-02T11:20:31;100355.53;;;35.39;23.52
14383;BME280;7275;50.328;8.720;2022-11-02T11:23:08;100360.75;;;35.55;22.95
14383;BME280;7275;50.328;8.720;2022-11-02T11:25:39;100351.13;;;35.72;22.75
14383;BME280;7275;50.328;8.720;2022-11-02T11:28:21;100353.59;;;35.95;22.68
14383;BME280;7275;50.328;8.720;2022-11-02T11:31:01;100345.44;;;36.15;22.34
14383;BME280;7275;50.328;8.720;2022-11-02T11:33:29;100351.22;;;36.33;21.89
14383;BME280;7275;50.328;8.720;2022-11-02T11:35:59;100369.63;;;36.32;21.52
14383;BME280;7275;50.328;8.720;2022-11-02T11:38:26;100358.59;;;36.19;21.06
14383;BME280;7275;50.328;8.720;2022-11-02T11:40:58;100364.28;;;36.11;21.00
14383;BME280;7275;50.328;8.720;2022-11-02T11:43:28;100363.00;;;36.13;21.38
14383;BME280;7275;50.328;8.720;2022-11-02T11:45:58;100357.53;;;36.27;21.00
14383;BME280;7275;50.328;8.720;2022-11-02T11:48:34;100356.94;;;36.31;20.92
14383;BME280;7275;50.328;8.720;2022-11-02T11:51:20;100352.13;;;36.46;20.99
14383;BME280;7275;50.328;8.720;2022-11-02T11:56:50;100347.31;;;36.81;20.21
14383;BME280;7275;50.328;8.720;2022-11-02T11:59:22;100345.34;;;36.49;19.69
14383;BME280;7275;50.328;8.720;2022-11-02T12:01:53;100336.59;;;36.26;20.10
14383;BME280;7275;50.328;8.720;2022-11-02T12:04:30;100345.28;;;36.29;19.94
14383;BME280;7275;50.328;8.720;2022-11-02T12:07:30;100345.28;;;36.29;20.38
14383;BME280;7275;50.328;8.720;2022-11-02T12:10:06;100340.88;;;36.41;20.55
14383;BME280;7275;50.328;8.720;2022-11-02T12:12:48;100331.16;;;36.52;20.39
14383;BME280;7275;50.328;8.720;2022-11-02T12:15:35;100327.75;;;36.43;20.71
14383;BME280;7275;50.328;8.720;2022-11-02T12:18:19;100335.44;;;36.87;20.53
14383;BME280;7275;50.328;8.720;2022-11-02T12:20:58;100333.75;;;37.51;19.95
14383;BME280;7275;50.328;8.720;2022-11-02T12:23:46;100326.09;;;38.24;19.69
14383;BME280;7275;50.328;8.720;2022-11-02T12:26:24;100316.75;;;38.87;18.89
14383;BME280;7275;50.328;8.720;2022-11-02T12:29:06;100312.38;;;39.47;18.61
14383;BME280;7275;50.328;8.720;2022-11-02T12:31:39;100317.88;;;40.08;18.75
14383;BME280;7275;50.328;8.720;2022-11-02T12:34:17;100306.41;;;40.64;17.66
14383;BME280;7275;50.328;8.720;2022-11-02T12:37:03;100311.44;;;40.85;17.60
14383;BME280;7275;50.328;8.720;2022-11-02T12:40:09;100320.06;;;40.77;17.28
14383;BME280;7275;50.328;8.720;2022-11-02T12:42:46;100326.69;;;40.64;17.18
14383;BME280;7275;50.328;8.720;2022-11-02T12:45:24;100327.06;;;40.20;16.81
14383;BME280;7275;50.328;8.720;2022-11-02T12:47:56;100327.25;;;39.71;16.93
14383;BME280;7275;50.328;8.720;2022-11-02T12:50:33;100331.22;;;39.39;17.33
14383;BME280;7275;50.328;8.720;2022-11-02T12:53:17;100333.53;;;38.92;17.34
14383;BME280;7275;50.328;8.720;2022-11-02T12:55:49;100342.00;;;38.28;17.59
14383;BME280;7275;50.328;8.720;2022-11-02T12:58:20;100337.72;;;37.75;17.80
14383;BME280;7275;50.328;8.720;2022-11-02T13:00:54;100330.53;;;37.61;18.21
14383;BME280;7275;50.328;8.720;2022-11-02T13:03:32;100328.59;;;37.61;17.98
14383;BME280;7275;50.328;8.720;2022-11-02T13:06:04;100327.84;;;36.96;17.74
14383;BME280;7275;50.328;8.720;2022-11-02T13:08:35;100317.81;;;35.95;18.01
14383;BME280;7275;50.328;8.720;2022-11-02T13:11:11;100325.84;;;34.79;18.67
14383;BME280;7275;50.328;8.720;2022-11-02T13:13:43;100322.53;;;33.62;18.99
14383;BME280;7275;50.328;8.720;2022-11-02T13:16:15;100331.13;;;32.47;19.82
14383;BME280;7275;50.328;8.720;2022-11-02T13:18:47;100324.88;;;31.53;20.39
14383;BME280;7275;50.328;8.720;2022-11-02T13:21:19;100326.66;;;30.82;20.93
14383;BME280;7275;50.328;8.720;2022-11-02T13:23:53;100335.97;;;30.23;21.47
14383;BME280;7275;50.328;8.720;2022-11-02T13:26:26;100324.84;;;29.66;22.23
14383;BME280;7275;50.328;8.720;2022-11-02T13:28:59;100328.69;;;29.22;22.73